Terminal Aerodrome Forecast
Issued by NWS

Home | Current Version | Previous Version | Text Only | Print | Product List | Glossary On
Versions: 1 2 3 4 5 6 7 8 9 10 11 12 13 14 15 16 17 18 19 20 21
000
FTUS43 KGRR 241519 AAA
TAFLAN
TAF AMD
KLAN 241519Z 2415/2512 06008KT P6SM SCT025 OVC100
     FM241800 09010KT P6SM OVC025
     FM250300 11016G26KT 3SM -SHRA OVC010 WS020/14040KT
     FM250800 16013G25KT 4SM -SHRA OVC003 WS020/20050KT
     FM251100 24020G34KT P6SM OVC025=

USA.gov is the U.S. government's official web portal to all federal, state and local government web resources and services.